Latest Weather Observations for Canberra

IDN60801

Issued at 3:02 pm EDT Sunday 29 March 2015 (issued every 30 minutes, with the page automatically refreshed every 10 minutes)

About weather observations | Map of weather stations | Latest weather observations for NSW | Other Formats
Station Details ID: 070351 Name: CANBERRA AIRPORT Lat: -35.31 Lon: 149.20 Height: 577.05 m
Data from the previous 72 hours. | See also: Recent months at Canberra
Date/Time
EDT
Temp
°C
App
Temp
°C
Dew
Point
Rel
Hum
%
Delta-T
°C
Wind Press
QNH
hPa
Press
MSL
hPa
Rain
since 9 am
mm
Dir
 
Spd
km/h
Gust
km/h
Spd
kts
Gust
kts
29/02:30pm 22.2 19.0 3.3 29 9.3 N 9 19 5 10 1022.4 - 0.0
29/02:00pm 22.4 19.3 3.5 29 9.4 NW 9 15 5 8 1022.6 - 0.0
29/01:30pm 20.8 17.5 2.6 30 8.8 NE 9 13 5 7 1022.7 - 0.0
29/01:00pm 21.8 18.9 4.4 32 8.8 WNW 9 13 5 7 1023.2 - 0.0
29/12:30pm 20.4 16.7 4.4 35 8.0 W 13 20 7 11 1023.6 - 0.0
29/12:00pm 19.3 17.3 6.4 43 6.6 W 6 13 3 7 1024.0 1022.3 0.0
29/11:30am 17.2 16.4 9.6 61 4.1 WSW 4 11 2 6 1024.2 - 0.0
29/11:00am 14.6 13.2 9.4 71 2.8 NW 7 9 4 5 1024.4 - 0.0
29/10:30am 12.3 11.0 9.9 85 1.3 NW 7 11 4 6 1024.8 - 0.0
29/10:25am 11.8 10.7 9.9 88 1.0 NNW 6 11 3 6 1024.9 - 0.0
29/10:00am 10.3 10.0 10.1 99 0.1 N 2 7 1 4 1024.9 - 0.0
29/09:47am 10.0 9.6 9.9 99 0.1 N 2 7 1 4 1024.9 - 0.0
29/09:42am 9.5 8.3 9.4 99 0.1 N 6 9 3 5 1024.9 - 0.0
29/09:30am 9.4 9.3 9.3 99 0.1 CALM 0 2 0 1 1024.9 - 0.0
29/09:21am 9.1 8.5 9.0 99 0.1 NNE 2 6 1 3 1024.8 - 0.0
29/09:13am 8.9 8.3 8.8 99 0.1 N 2 7 1 4 1024.6 - 0.0
29/09:10am 9.0 8.0 8.9 99 0.1 N 4 7 2 4 1024.6 - 0.0
29/09:00am 8.9 7.3 8.8 99 0.1 N 7 9 4 5 1024.6 1023.0 0.0
29/08:30am 7.9 6.1 7.8 99 0.0 NNW 7 9 4 5 1024.2 - 0.0
29/08:00am 7.2 5.2 7.1 99 0.0 N 7 7 4 4 1023.8 - 0.0
29/07:30am 6.3 4.1 6.2 99 0.0 N 7 9 4 5 1023.6 - 0.0
29/07:19am 6.4 5.6 6.3 99 0.0 CALM 0 - 0 - 1023.4 - 0.0
29/07:09am 6.1 4.8 6.0 99 0.0 NNE 2 6 1 3 1023.3 - 0.0
29/07:00am 5.5 3.7 5.4 99 0.0 NNE 4 6 2 3 1023.2 - 0.0
29/06:45am 4.9 3.7 4.8 99 0.0 CALM 0 - 0 - 1023.2 - 0.0
29/06:30am 3.7 2.3 3.4 98 0.1 CALM 0 - 0 - 1023.0 - 0.0
29/06:14am 4.5 3.2 4.2 98 0.1 CALM 0 0 0 0 1022.7 - 0.0
29/05:50am 5.5 4.4 5.2 98 0.1 CALM 0 0 0 0 1022.6 - 0.0
29/05:30am 5.5 4.4 5.1 97 0.2 CALM 0 0 0 0 1022.6 - 0.0
29/05:24am 5.3 4.2 4.9 97 0.2 CALM 0 0 0 0 1022.7 - 0.0
29/05:14am 5.4 4.2 4.8 96 0.3 CALM 0 0 0 0 1022.6 - 0.0
29/05:00am 5.2 4.0 4.5 95 0.3 CALM 0 0 0 0 1022.6 - 0.0
29/04:56am 5.2 3.9 4.3 94 0.4 CALM 0 0 0 0 1022.5 - 0.0
29/04:30am 6.3 5.3 5.6 95 0.3 CALM 0 4 0 2 1022.4 - 0.0
29/04:00am 6.4 4.1 5.8 96 0.3 NNW 7 9 4 5 1022.6 - 0.0
29/03:30am 7.2 6.4 6.6 96 0.3 CALM 0 4 0 2 1022.8 - 0.0
29/03:00am 7.1 6.3 6.5 96 0.3 CALM 0 0 0 0 1023.3 1021.6 0.0
29/02:30am 6.2 5.0 4.7 90 0.7 CALM 0 0 0 0 1023.5 - 0.0
29/02:00am 8.1 7.3 6.6 90 0.7 CALM 0 0 0 0 1023.6 - 0.0
29/01:30am 8.2 7.3 6.2 87 0.9 CALM 0 0 0 0 1023.7 - 0.0
29/01:00am 9.3 7.5 7.1 86 1.1 ESE 6 7 3 4 1023.8 - 0.0
29/12:30am 9.6 8.5 6.7 82 1.4 SSE 2 7 1 4 1023.8 - 0.0
29/12:00am 10.9 8.9 7.0 77 1.9 E 7 11 4 6 1023.9 1022.2 0.0
 
Date/Time
EDT
Temp
°C
App
Temp
°C
Dew
Point
Rel
Hum
%
Delta-T
°C
Wind Press
QNH
hPa
Press
MSL
hPa
Rain
since 9 am
mm
Dir
 
Spd
km/h
Gust
km/h
Spd
kts
Gust
kts
28/11:30pm 12.2 10.6 8.1 76 2.1 ESE 6 11 3 6 1023.9 - 0.0
28/11:00pm 12.1 9.5 7.8 75 2.2 ENE 11 15 6 8 1023.9 - 0.0
28/10:30pm 12.4 10.6 7.9 74 2.3 E 7 9 4 5 1024.0 - 0.0
28/10:00pm 12.7 11.4 7.6 71 2.6 WNW 4 9 2 5 1024.0 - 0.0
28/09:30pm 13.5 9.8 7.9 69 2.9 ENE 17 26 9 14 1023.7 - 0.0
28/09:00pm 14.1 10.0 7.9 66 3.2 ENE 19 24 10 13 1023.4 1021.7 0.0
28/08:30pm 14.6 10.1 6.2 57 4.2 ENE 19 22 10 12 1022.7 - 0.0
28/08:00pm 14.0 10.5 1.3 42 5.6 NNE 9 11 5 6 1022.4 - 0.0
28/07:30pm 16.5 12.7 1.8 37 6.8 N 11 13 6 7 1021.8 - 0.0
28/07:00pm 17.3 13.0 1.3 34 7.3 NW 13 17 7 9 1021.7 - 0.0
28/06:30pm 20.2 15.9 1.1 28 8.9 NNW 13 17 7 9 1021.4 - 0.0
28/05:30pm 21.2 17.3 -1.3 22 10.1 NW 9 15 5 8 1021.3 - 0.0
28/05:00pm 21.9 17.7 -0.8 22 10.3 NW 11 17 6 9 1021.4 - 0.0
28/04:30pm 22.2 17.7 -0.5 22 10.4 W 13 17 7 9 1021.4 - 0.0
28/04:00pm 21.7 16.7 -0.9 22 10.3 W 15 19 8 10 1021.6 - 0.0
28/03:30pm 21.4 16.3 0.6 25 9.7 WNW 17 28 9 15 1021.6 - 0.0
28/03:00pm 21.6 17.3 1.3 26 9.6 W 13 20 7 11 1021.8 1020.1 0.0
28/02:30pm 20.3 16.2 2.2 30 8.6 W 13 19 7 10 1022.1 - 0.0
28/02:00pm 20.3 15.9 2.6 31 8.5 W 15 20 8 11 1022.5 - 0.0
28/01:30pm 19.0 14.9 2.0 32 8.0 WSW 13 19 7 10 1023.1 - 0.0
28/01:00pm 18.9 15.6 2.7 34 7.7 SW 9 19 5 10 1023.3 - 0.0
28/12:30pm 17.9 14.1 1.8 34 7.5 W 11 15 6 8 1023.8 - 0.0
28/12:00pm 17.5 14.0 3.4 39 6.7 WNW 11 17 6 9 1024.3 1022.7 0.0
28/11:30am 16.7 13.6 3.7 42 6.2 W 9 13 5 7 1024.4 - 0.0
28/11:00am 15.3 13.0 4.7 49 5.1 SW 6 11 3 6 1024.5 - 0.0
28/10:30am 14.1 11.2 4.7 53 4.5 WSW 9 13 5 7 1024.6 - 0.0
28/10:00am 12.5 11.0 5.2 61 3.5 SW 2 11 1 6 1024.8 - 0.0
28/09:30am 10.5 8.7 5.3 70 2.5 SSW 4 9 2 5 1024.9 - 0.0
28/09:00am 8.0 6.1 4.8 80 1.5 SW 4 6 2 3 1024.8 1023.1 0.0
28/08:30am 5.7 4.0 4.0 89 0.7 N 2 7 1 4 1024.5 - 0.0
28/08:00am 4.0 2.1 3.0 93 0.4 NNE 2 7 1 4 1024.4 - 0.0
28/07:30am 1.4 -2.3 0.2 92 0.5 NNW 9 11 5 6 1024.1 - 0.0
28/07:00am 2.9 0.1 2.2 95 0.3 E 6 9 3 5 1023.7 - 0.0
28/06:30am 2.5 0.8 1.6 94 0.4 CALM 0 0 0 0 1023.4 - 0.0
28/06:00am 3.3 -0.1 2.0 91 0.5 N 9 11 5 6 1023.1 1021.4 0.0
28/05:30am 3.6 0.9 2.4 92 0.5 N 6 7 3 4 1022.7 - 0.0
28/05:00am 3.7 1.0 2.4 91 0.5 ESE 6 7 3 4 1022.3 - 0.0
28/04:30am 3.9 1.9 2.4 90 0.6 NNE 2 9 1 5 1022.3 - 0.0
28/04:00am 4.5 1.9 3.0 90 0.6 N 6 7 3 4 1022.4 - 0.0
28/03:30am 4.4 2.9 2.8 89 0.7 CALM 0 2 0 1 1022.3 - 0.0
28/03:00am 5.1 2.2 2.8 85 1.0 SE 7 7 4 4 1022.5 1020.8 0.0
28/02:30am 5.1 2.2 2.8 85 1.0 ESE 7 9 4 5 1022.6 - 0.0
28/02:00am 5.3 2.1 3.2 86 0.9 ESE 9 9 5 5 1022.6 - 0.0
28/01:30am 4.9 1.6 2.3 83 1.1 ESE 9 11 5 6 1022.6 - 0.0
28/01:00am 5.3 3.2 2.0 79 1.4 NE 2 7 1 4 1022.6 - 0.0
28/12:30am 6.9 4.2 2.6 74 1.8 NNE 6 7 3 4 1022.6 - 0.0
28/12:00am 7.5 4.9 3.0 73 2.0 NNE 6 9 3 5 1022.6 1021.0 0.0
 
Date/Time
EDT
Temp
°C
App
Temp
°C
Dew
Point
Rel
Hum
%
Delta-T
°C
Wind Press
QNH
hPa
Press
MSL
hPa
Rain
since 9 am
mm
Dir
 
Spd
km/h
Gust
km/h
Spd
kts
Gust
kts
27/11:30pm 7.3 4.5 3.0 74 1.9 NE 7 9 4 5 1022.4 - 0.0
27/11:00pm 7.6 4.8 3.3 74 1.9 E 7 9 4 5 1022.4 - 0.0
27/10:30pm 7.9 5.2 2.4 68 2.4 NNE 6 11 3 6 1022.3 - 0.0
27/10:00pm 11.4 8.9 3.9 60 3.5 WNW 6 11 3 6 1022.1 - 0.0
27/09:30pm 11.9 8.4 3.7 57 3.8 N 11 13 6 7 1021.9 - 0.0
27/09:00pm 12.6 8.4 3.8 55 4.1 WNW 15 19 8 10 1021.5 1019.8 0.0
27/08:30pm 13.5 9.3 3.8 52 4.5 WNW 15 20 8 11 1021.2 - 0.0
27/08:00pm 14.1 10.4 4.7 53 4.5 W 13 19 7 10 1020.8 - 0.0
27/07:30pm 14.9 10.4 4.0 48 5.2 W 17 22 9 12 1020.6 - 0.0
27/07:00pm 15.6 10.0 3.7 45 5.6 W 22 28 12 15 1020.3 - 0.0
27/06:30pm 16.4 10.9 3.8 43 6.0 WNW 22 33 12 18 1019.9 - 0.0
27/06:00pm 17.3 12.1 3.6 40 6.6 WNW 20 33 11 18 1019.7 1018.0 0.0
27/05:30pm 18.1 11.3 3.2 37 7.1 WNW 28 37 15 20 1019.4 - 0.0
27/05:00pm 18.5 11.6 2.8 35 7.5 W 28 43 15 23 1018.9 - 0.0
27/04:30pm 19.0 11.5 3.2 35 7.6 WNW 32 41 17 22 1018.7 - 0.0
27/04:00pm 19.0 11.8 2.8 34 7.7 WNW 30 39 16 21 1018.7 - 0.0
27/03:30pm 19.1 11.4 2.5 33 7.9 WNW 32 41 17 22 1019.0 - 0.0
27/03:00pm 19.8 13.0 3.1 33 8.1 WNW 28 39 15 21 1019.1 1017.4 0.0
27/02:30pm 19.4 12.1 2.7 33 8.0 WNW 30 46 16 25 1019.1 - 0.0
27/02:00pm 19.2 11.8 2.1 32 8.1 WNW 30 41 16 22 1019.1 - 0.0
27/01:30pm 18.3 10.7 2.6 35 7.4 WNW 32 43 17 23 1019.6 - 0.0
27/01:00pm 18.5 10.8 2.4 34 7.6 WNW 32 50 17 27 1020.1 - 0.0
27/12:57pm 18.1 10.4 2.4 35 7.4 WNW 32 50 17 27 1020.1 - 0.0
27/12:30pm 18.2 11.3 2.5 35 7.4 WNW 28 41 15 22 1020.6 - 0.0
27/12:00pm 17.7 10.9 3.2 38 6.9 WNW 28 41 15 22 1021.2 1019.5 0.0
27/11:30am 16.4 9.6 3.1 41 6.3 WNW 28 41 15 22 1021.2 - 0.0
27/11:12am 16.0 9.2 3.1 42 6.1 WNW 28 46 15 25 1020.9 - 0.0
27/11:00am 15.5 8.8 3.6 45 5.6 WNW 28 37 15 20 1021.2 - 0.0
27/10:30am 14.5 8.7 4.2 50 4.9 WNW 24 35 13 19 1021.5 - 0.0
27/10:00am 13.2 7.3 4.1 54 4.3 NNW 24 33 13 18 1021.8 - 0.0
27/09:30am 11.8 6.7 3.3 56 3.9 NNW 19 26 10 14 1021.7 - 0.0
27/09:00am 10.8 5.5 3.1 59 3.5 NNW 20 28 11 15 1021.6 1019.9 0.0
27/08:30am 9.8 3.4 3.1 63 3.0 N 26 30 14 16 1021.5 - 0.0
27/08:00am 8.7 3.0 2.7 66 2.6 N 22 26 12 14 1021.4 - 0.0
27/07:30am 7.8 2.6 2.3 68 2.4 N 19 24 10 13 1021.1 - 0.0
27/07:00am 7.6 2.7 1.9 67 2.4 N 17 20 9 11 1020.8 - 0.0
27/06:30am 7.9 2.9 1.3 63 2.8 N 17 20 9 11 1020.4 - 0.0
27/06:00am 7.7 3.4 1.1 63 2.7 NNE 13 17 7 9 1020.2 1018.5 0.0
27/05:30am 8.1 4.1 0.8 60 3.0 N 11 15 6 8 1020.0 - 0.0
27/05:00am 8.6 4.3 0.8 58 3.3 NW 13 19 7 10 1020.0 - 0.0
27/04:30am 9.6 4.5 0.5 53 3.8 WNW 17 32 9 17 1020.0 - 0.0
27/04:00am 9.4 4.2 0.3 53 3.8 NW 17 24 9 13 1020.1 - 0.0
27/03:30am 9.4 4.1 -0.5 50 4.1 WNW 17 26 9 14 1020.4 - 0.0
27/03:00am 10.3 4.6 -0.5 47 4.4 WNW 19 26 10 14 1020.3 1018.6 0.0
27/02:30am 9.6 4.3 -0.6 49 4.2 WNW 17 28 9 15 1020.5 - 0.0
27/02:00am 9.5 4.6 -0.7 49 4.2 NW 15 30 8 16 1020.6 - 0.0
27/01:30am 9.6 4.3 -0.9 48 4.3 NNW 17 22 9 12 1020.9 - 0.0
27/01:00am 9.4 4.5 -0.8 49 4.1 NW 15 20 8 11 1021.2 - 0.0
27/12:30am 9.7 5.5 -0.8 48 4.3 NW 11 17 6 9 1021.2 - 0.0
27/12:00am 11.1 6.5 -1.3 42 5.0 NNW 13 19 7 10 1021.4 1019.7 0.0
 
Date/Time
EDT
Temp
°C
App
Temp
°C
Dew
Point
Rel
Hum
%
Delta-T
°C
Wind Press
QNH
hPa
Press
MSL
hPa
Rain
since 9 am
mm
Dir
 
Spd
km/h
Gust
km/h
Spd
kts
Gust
kts
26/11:30pm 10.9 7.1 -0.9 44 4.9 N 9 15 5 8 1021.5 - 0.0
26/11:00pm 10.7 6.1 -1.4 43 4.9 N 13 24 7 13 1021.4 - 0.0
26/10:30pm 10.1 6.2 -1.6 44 4.7 NNE 9 13 5 7 1021.5 - 0.0
26/10:00pm 10.5 6.5 -1.9 42 5.0 N 9 15 5 8 1021.4 - 0.0
26/09:30pm 11.1 7.5 -2.3 39 5.4 N 7 9 4 5 1021.5 - 0.0
26/09:00pm 11.9 7.2 -1.9 38 5.6 NW 13 20 7 11 1021.1 1019.4 0.0
26/08:30pm 12.5 7.3 -2.5 35 6.1 NW 15 24 8 13 1020.9 - 0.0
26/08:00pm 12.6 7.1 -2.1 36 6.0 NW 17 24 9 13 1020.4 - 0.0
26/07:30pm 13.9 7.9 -1.7 34 6.5 W 20 30 11 16 1020.0 - 0.0
26/07:00pm 14.6 6.9 -2.8 30 7.1 WNW 28 37 15 20 1019.4 - 0.0
26/06:30pm 15.7 8.0 -2.7 28 7.6 W 28 39 15 21 1018.8 - 0.0
26/06:00pm 16.3 9.1 -2.2 28 7.8 W 26 43 14 23 1018.7 1017.0 0.0
26/05:30pm 17.4 9.6 -0.8 29 8.0 W 30 39 16 21 1018.4 - 0.0
26/05:00pm 17.8 9.2 0.5 31 7.8 W 35 48 19 26 1018.1 - 0.0
26/04:30pm 18.2 10.4 1.7 33 7.7 WNW 32 50 17 27 1017.8 - 0.0
26/04:00pm 18.8 10.0 3.4 36 7.4 WNW 39 59 21 32 1017.6 - 0.0
26/03:30pm 19.3 11.2 3.1 34 7.8 WNW 35 56 19 30 1017.5 - 0.0
26/03:07pm 19.7 11.9 3.0 33 8.1 WNW 33 52 18 28 1017.2 - 0.0

Other Formats:

Comma delimited format used in spreadsheet applications
http://www.bom.gov.au/fwo/IDN60801/IDN60801.94926.axf

JavaScript Object Notation format (JSON) in row-major order
http://www.bom.gov.au/fwo/IDN60801/IDN60801.94926.json